Time;durP1;ratioP1;P1;durP2;ratioP2;P2;SDS_P1;SDS_P2;PMS_P1;PMS_P2;Temp;Humidity;BMP_temperature;BMP_pressure;BME280_temperature;BME280_humidity;BME280_pressure;Samples;Min_cycle;Max_cycle;Signal;HPM_P1;HPM_P2
2023/01/26 00:03:20;;;;;;;17.80;13.70;;;2.40;99.90;;;;;;10343397;28;20700;-68
2023/01/26 00:08:21;;;;;;;19.37;13.77;;;2.50;99.90;;;;;;10345745;28;20218;-69
2023/01/26 00:13:21;;;;;;;18.33;13.10;;;2.50;99.90;;;;;;10350020;28;20721;-69
2023/01/26 00:18:22;;;;;;;17.77;13.37;;;2.40;99.90;;;;;;10345085;28;20224;-68
2023/01/26 00:23:24;;;;;;;18.17;12.57;;;2.30;99.90;;;;;;10331417;28;20825;-68
2023/01/26 00:28:24;;;;;;;16.37;12.03;;;2.30;99.90;;;;;;10344958;28;20321;-68
2023/01/26 00:33:25;;;;;;;19.70;13.17;;;2.20;99.90;;;;;;10358123;28;20308;-69
2023/01/26 00:38:26;;;;;;;17.23;12.63;;;2.20;99.90;;;;;;10349273;28;20244;-68
2023/01/26 00:43:26;;;;;;;17.10;11.87;;;2.30;99.90;;;;;;10332488;28;20222;-68
2023/01/26 00:48:27;;;;;;;18.20;12.87;;;2.30;99.90;;;;;;10348305;28;20265;-69
2023/01/26 00:53:28;;;;;;;21.27;13.17;;;2.30;99.90;;;;;;10345166;28;20214;-68
2023/01/26 00:58:28;;;;;;;18.60;13.43;;;2.30;99.90;;;;;;10351879;28;20214;-68
2023/01/26 01:03:29;;;;;;;20.70;15.13;;;2.20;99.90;;;;;;10350132;28;20209;-68
2023/01/26 01:08:29;;;;;;;18.17;13.20;;;2.30;99.90;;;;;;10349299;28;20224;-68
2023/01/26 01:13:30;;;;;;;18.17;12.77;;;2.30;99.90;;;;;;10353878;28;20230;-69
2023/01/26 01:18:30;;;;;;;20.03;13.70;;;2.20;99.90;;;;;;10352570;28;20217;-69
2023/01/26 01:23:31;;;;;;;17.57;12.23;;;2.20;99.90;;;;;;10336994;28;20771;-69
2023/01/26 01:28:33;;;;;;;20.90;13.40;;;2.10;99.90;;;;;;10349123;28;20217;-69
2023/01/26 01:33:33;;;;;;;19.10;13.47;;;2.20;99.90;;;;;;10354647;28;20222;-68
2023/01/26 01:38:34;;;;;;;19.40;13.43;;;2.10;99.90;;;;;;10352709;28;20224;-69
2023/01/26 01:43:36;;;;;;;19.47;13.37;;;2.10;99.90;;;;;;10356887;28;20225;-69
2023/01/26 01:48:49;;;;;;;19.27;13.23;;;2.10;99.90;;;;;;10357197;28;20218;-68
2023/01/26 01:53:51;;;;;;;15.77;10.93;;;2.10;99.90;;;;;;10351269;28;20222;-68
2023/01/26 01:58:54;;;;;;;14.93;9.93;;;2.10;99.90;;;;;;10354031;28;20291;-69
2023/01/26 02:04:00;;;;;;;13.47;9.53;;;2.10;99.90;;;;;;10350583;28;20229;-69
2023/01/26 02:09:03;;;;;;;12.70;9.70;;;2.20;99.90;;;;;;10355183;28;20745;-69
2023/01/26 02:14:07;;;;;;;15.43;10.30;;;2.20;99.90;;;;;;10349207;28;20755;-68
2023/01/26 02:19:20;;;;;;;15.80;10.47;;;2.20;99.90;;;;;;10355538;28;20719;-68
2023/01/26 02:24:33;;;;;;;15.93;10.40;;;2.20;99.90;;;;;;10356327;28;20755;-68
2023/01/26 02:29:33;;;;;;;14.60;10.17;;;2.20;99.90;;;;;;10354711;28;20313;-69
2023/01/26 02:34:34;;;;;;;14.57;10.13;;;2.20;99.90;;;;;;10347707;28;20319;-68
2023/01/26 02:39:48;;;;;;;14.90;9.83;;;2.20;99.90;;;;;;10342671;28;20210;-69
2023/01/26 02:44:49;;;;;;;17.43;11.90;;;2.20;99.90;;;;;;10358560;28;20597;-68
2023/01/26 02:49:50;;;;;;;17.93;12.20;;;2.30;99.90;;;;;;10349665;28;20272;-67
2023/01/26 03:00:19;;;;;;;10.80;7.73;;;2.20;99.90;;;;;;10352806;28;20214;-68
2023/01/26 03:05:19;;;;;;;13.03;8.70;;;2.20;99.90;;;;;;10344337;28;20272;-68
2023/01/26 03:10:22;;;;;;;14.77;9.83;;;2.20;99.90;;;;;;10360729;28;20205;-69
2023/01/26 03:15:42;;;;;;;15.97;10.60;;;2.20;99.90;;;;;;10351983;28;20189;-69
2023/01/26 03:31:21;;;;;;;17.50;11.77;;;2.20;99.90;;;;;;10346026;28;20213;-70
2023/01/26 03:36:21;;;;;;;19.73;11.87;;;2.20;99.90;;;;;;10350912;28;20221;-68
2023/01/26 03:57:20;;;;;;;14.33;9.20;;;1.90;99.90;;;;;;10345970;28;20298;-68
2023/01/26 04:23:37;;;;;;;12.30;8.93;;;1.80;99.90;;;;;;10348239;28;20225;-68
2023/01/26 04:28:38;;;;;;;13.17;8.60;;;1.80;99.90;;;;;;10347434;28;20225;-67
2023/01/26 04:33:38;;;;;;;11.67;8.23;;;1.70;99.90;;;;;;10346960;28;20217;-68
2023/01/26 04:38:39;;;;;;;11.13;7.97;;;1.70;99.90;;;;;;10351089;28;20685;-68
2023/01/26 04:43:39;;;;;;;10.80;7.10;;;1.70;99.90;;;;;;10352635;28;20683;-68
2023/01/26 04:48:40;;;;;;;13.23;7.90;;;1.60;99.90;;;;;;10346854;28;20227;-68
2023/01/26 04:53:41;;;;;;;11.40;8.60;;;1.60;99.90;;;;;;10346696;28;20213;-67
2023/01/26 04:58:42;;;;;;;11.77;8.57;;;1.60;99.90;;;;;;10348365;28;20685;-68
2023/01/26 05:03:42;;;;;;;11.90;8.40;;;1.70;99.90;;;;;;10345670;28;20236;-67
2023/01/26 05:08:46;;;;;;;11.20;8.00;;;1.70;99.90;;;;;;10347551;28;20225;-68
2023/01/26 05:13:47;;;;;;;12.67;9.00;;;1.70;99.90;;;;;;10350384;28;20217;-67
2023/01/26 05:18:47;;;;;;;12.73;8.47;;;1.80;99.90;;;;;;10351318;28;20248;-67
2023/01/26 05:23:48;;;;;;;11.50;8.47;;;1.70;99.90;;;;;;10352879;28;20244;-67
2023/01/26 05:28:51;;;;;;;12.97;8.97;;;1.60;99.90;;;;;;10346851;28;20279;-68
2023/01/26 05:33:52;;;;;;;10.50;7.03;;;1.60;99.90;;;;;;10341230;28;20227;-67
2023/01/26 05:38:52;;;;;;;11.07;8.23;;;1.60;99.90;;;;;;10344093;28;20232;-68
2023/01/26 05:43:56;;;;;;;10.03;7.60;;;1.60;99.90;;;;;;10347827;28;20244;-68
2023/01/26 05:48:57;;;;;;;13.17;8.53;;;1.60;99.90;;;;;;10350086;28;20579;-68
2023/01/26 05:53:57;;;;;;;11.07;7.70;;;1.60;99.90;;;;;;10348080;28;20233;-68
2023/01/26 05:58:58;;;;;;;11.30;7.63;;;1.70;99.90;;;;;;10345267;28;20367;-68
2023/01/26 06:04:02;;;;;;;10.17;7.23;;;1.70;99.90;;;;;;10350306;28;20228;-68
2023/01/26 06:09:02;;;;;;;11.70;7.77;;;1.70;99.90;;;;;;10354742;28;20745;-68
2023/01/26 06:14:03;;;;;;;13.13;8.03;;;1.70;99.90;;;;;;10349364;28;20280;-69
2023/01/26 06:19:04;;;;;;;11.17;8.40;;;1.70;99.90;;;;;;10355207;28;20873;-68
2023/01/26 06:24:05;;;;;;;12.97;8.10;;;1.70;99.90;;;;;;10339163;28;20231;-69
2023/01/26 06:29:06;;;;;;;9.80;7.20;;;1.70;99.90;;;;;;10354552;28;20221;-69
2023/01/26 06:34:07;;;;;;;14.40;7.57;;;1.60;99.90;;;;;;10355346;28;20599;-70
2023/01/26 06:39:10;;;;;;;10.97;7.80;;;1.60;99.90;;;;;;10354786;28;20213;-68
2023/01/26 06:44:11;;;;;;;15.93;8.47;;;1.60;99.90;;;;;;10337448;28;20471;-68
2023/01/26 06:49:12;;;;;;;11.17;7.87;;;1.60;99.90;;;;;;10354529;28;20229;-69
2023/01/26 06:54:14;;;;;;;10.87;8.10;;;1.60;99.90;;;;;;10347224;28;20278;-68
2023/01/26 06:59:15;;;;;;;11.20;7.80;;;1.50;99.90;;;;;;10348611;28;20595;-68
2023/01/26 07:04:17;;;;;;;15.43;8.47;;;1.60;99.90;;;;;;10355726;28;20375;-68
2023/01/26 07:09:17;;;;;;;27.20;9.53;;;1.60;99.90;;;;;;10337438;28;20234;-68
2023/01/26 07:14:18;;;;;;;29.17;10.37;;;1.60;99.90;;;;;;10353141;28;20217;-68
2023/01/26 07:19:18;;;;;;;23.53;9.03;;;1.50;99.90;;;;;;10352537;28;20228;-68
2023/01/26 07:24:20;;;;;;;20.70;8.70;;;1.60;99.90;;;;;;10360164;28;20236;-69
2023/01/26 07:29:21;;;;;;;13.93;8.10;;;1.60;99.90;;;;;;10337269;28;20713;-68
2023/01/26 07:34:21;;;;;;;15.70;8.00;;;1.60;99.90;;;;;;10351553;28;20213;-68
2023/01/26 07:39:22;;;;;;;15.73;8.87;;;1.70;99.90;;;;;;10345874;28;20305;-68
2023/01/26 07:44:23;;;;;;;20.40;9.27;;;1.60;99.90;;;;;;10351079;28;20256;-67
2023/01/26 07:49:23;;;;;;;14.00;7.93;;;1.60;99.90;;;;;;10350210;28;20226;-68
2023/01/26 07:54:24;;;;;;;15.57;9.00;;;1.60;99.90;;;;;;10345503;28;20218;-68
2023/01/26 07:59:24;;;;;;;15.23;8.57;;;1.60;99.90;;;;;;10349218;28;20688;-68
2023/01/26 08:04:28;;;;;;;24.63;8.93;;;1.60;99.90;;;;;;10345692;28;20224;-68
2023/01/26 08:09:28;;;;;;;14.20;6.23;;;1.70;99.90;;;;;;10348836;28;20226;-68
2023/01/26 08:14:29;;;;;;;11.10;7.20;;;1.70;99.90;;;;;;10344785;28;20595;-67
2023/01/26 08:19:29;;;;;;;15.50;8.10;;;1.80;99.90;;;;;;10349699;28;20234;-70
2023/01/26 08:24:30;;;;;;;36.70;8.80;;;1.80;99.90;;;;;;10342287;28;20245;-68
2023/01/26 08:29:31;;;;;;;20.20;8.03;;;1.80;99.90;;;;;;10352567;28;20222;-68
2023/01/26 08:34:31;;;;;;;18.50;8.57;;;1.80;99.90;;;;;;10343919;28;20217;-67
2023/01/26 08:39:32;;;;;;;30.10;10.43;;;1.80;99.90;;;;;;10355549;28;20214;-67
2023/01/26 08:44:32;;;;;;;18.17;9.37;;;1.70;99.90;;;;;;10338796;28;20237;-67
2023/01/26 08:49:33;;;;;;;19.07;8.57;;;1.70;99.90;;;;;;10344653;28;20224;-67
2023/01/26 08:54:33;;;;;;;11.83;8.73;;;1.70;99.90;;;;;;10348286;28;20240;-68
2023/01/26 08:59:34;;;;;;;15.90;7.80;;;1.70;99.90;;;;;;10353703;28;20684;-68
2023/01/26 09:04:35;;;;;;;17.47;8.17;;;1.70;99.90;;;;;;10347305;28;20214;-69
2023/01/26 09:09:35;;;;;;;14.20;7.90;;;1.80;99.90;;;;;;10349914;28;20222;-68
2023/01/26 09:14:40;;;;;;;14.17;7.40;;;1.90;99.90;;;;;;10359403;28;20627;-68
2023/01/26 09:19:40;;;;;;;20.53;8.60;;;1.90;99.90;;;;;;10345544;28;20218;-68
2023/01/26 09:24:41;;;;;;;13.53;7.53;;;2.00;99.90;;;;;;10345748;28;20621;-68
2023/01/26 09:29:41;;;;;;;10.47;7.20;;;1.90;99.90;;;;;;10346549;28;20232;-70
2023/01/26 09:34:42;;;;;;;8.53;7.00;;;1.90;99.90;;;;;;10353163;28;20775;-69
2023/01/26 09:39:42;;;;;;;9.47;7.17;;;1.90;99.90;;;;;;10353751;28;20229;-68
2023/01/26 09:44:54;;;;;;;8.03;6.47;;;1.90;99.90;;;;;;10353860;28;20235;-69
2023/01/26 09:50:09;;;;;;;10.30;7.93;;;1.70;99.90;;;;;;10351456;28;20655;-68
2023/01/26 09:55:16;;;;;;;8.80;6.73;;;1.60;99.90;;;;;;10356603;28;20217;-68
2023/01/26 10:00:35;;;;;;;11.10;7.70;;;1.50;99.90;;;;;;10356829;28;20182;-68
2023/01/26 10:06:06;;;;;;;9.93;7.13;;;1.40;99.90;;;;;;10353469;28;20293;-68
2023/01/26 10:11:16;;;;;;;8.93;6.63;;;1.40;99.90;;;;;;10355841;28;20222;-68
2023/01/26 10:16:23;;;;;;;8.63;6.87;;;1.40;99.90;;;;;;10349465;28;20222;-69
2023/01/26 10:21:29;;;;;;;9.00;7.20;;;1.50;99.90;;;;;;10358527;28;20218;-68
2023/01/26 10:26:32;;;;;;;10.73;7.40;;;1.60;99.90;;;;;;10351039;28;20670;-68
2023/01/26 10:31:33;;;;;;;8.80;6.60;;;1.70;99.90;;;;;;10355863;28;20214;-68
2023/01/26 10:36:33;;;;;;;8.50;6.07;;;1.80;99.90;;;;;;10352919;28;20222;-69
2023/01/26 10:41:35;;;;;;;8.07;6.37;;;1.80;99.90;;;;;;10350310;28;20710;-68
2023/01/26 10:46:41;;;;;;;9.47;7.00;;;1.70;99.90;;;;;;10354393;28;20619;-68
2023/01/26 10:51:46;;;;;;;8.37;6.10;;;1.80;99.90;;;;;;10355852;28;20233;-68
2023/01/26 10:56:48;;;;;;;8.50;6.07;;;1.80;99.90;;;;;;10350319;28;20259;-68
2023/01/26 11:01:58;;;;;;;8.23;6.00;;;1.80;99.90;;;;;;10353319;28;20218;-68
2023/01/26 11:07:26;;;;;;;7.60;5.63;;;1.70;99.90;;;;;;10361707;28;20221;-68
2023/01/26 11:12:27;;;;;;;9.13;6.60;;;1.90;99.90;;;;;;10348265;28;20218;-69
2023/01/26 11:18:10;;;;;;;9.10;6.20;;;1.90;99.90;;;;;;10350965;28;20222;-68
2023/01/26 11:23:32;;;;;;;8.23;5.93;;;1.80;99.90;;;;;;10320671;28;20224;-69
2023/01/26 11:29:17;;;;;;;9.33;5.80;;;1.80;99.90;;;;;;10349427;28;20309;-68
2023/01/26 11:34:20;;;;;;;7.53;5.50;;;1.90;99.90;;;;;;10347315;28;20297;-68
2023/01/26 11:39:33;;;;;;;7.57;6.00;;;2.00;99.90;;;;;;10352485;28;20217;-68
2023/01/26 11:45:04;;;;;;;7.77;6.07;;;2.10;99.90;;;;;;10348940;28;20278;-69
2023/01/26 11:50:14;;;;;;;8.00;6.00;;;2.10;99.90;;;;;;10350725;28;20218;-68
2023/01/26 11:55:42;;;;;;;8.63;6.10;;;2.20;99.90;;;;;;10352987;28;20189;-68
2023/01/26 12:00:58;;;;;;;7.07;5.70;;;2.20;99.90;;;;;;10349371;28;20213;-69
2023/01/26 12:06:04;;;;;;;9.60;6.33;;;2.10;99.90;;;;;;10345832;28;20209;-69
2023/01/26 12:11:22;;;;;;;9.37;6.47;;;2.00;99.90;;;;;;10346198;28;20221;-69
2023/01/26 12:16:48;;;;;;;9.00;6.40;;;2.00;99.90;;;;;;10346676;28;20221;-68
2023/01/26 12:21:50;;;;;;;9.80;7.07;;;2.00;99.90;;;;;;10360372;28;20225;-69
2023/01/26 12:26:53;;;;;;;10.27;7.13;;;2.00;99.90;;;;;;10347707;28;20882;-68
2023/01/26 12:32:04;;;;;;;9.50;6.20;;;2.00;99.90;;;;;;10343211;28;20210;-68
2023/01/26 12:37:37;;;;;;;13.57;6.57;;;2.10;99.90;;;;;;10342834;28;20220;-68
2023/01/26 12:43:01;;;;;;;14.17;6.53;;;2.20;99.90;;;;;;10344349;28;20704;-69
2023/01/26 12:48:13;;;;;;;11.77;7.50;;;2.20;99.90;;;;;;10352199;28;20229;-67
2023/01/26 12:53:20;;;;;;;12.57;8.00;;;2.30;99.90;;;;;;10345594;28;20696;-68
2023/01/26 12:58:43;;;;;;;12.60;8.00;;;2.20;99.90;;;;;;10348430;28;20222;-67
2023/01/26 13:03:56;;;;;;;13.27;7.70;;;2.00;99.90;;;;;;10353040;28;20228;-68
2023/01/26 13:09:17;;;;;;;10.87;7.93;;;2.00;99.90;;;;;;10352967;28;20233;-68
2023/01/26 13:14:36;;;;;;;10.30;7.10;;;2.00;99.90;;;;;;10361758;28;20213;-68
2023/01/26 13:19:42;;;;;;;15.60;7.60;;;2.10;99.90;;;;;;10355311;28;20228;-69
2023/01/26 13:25:11;;;;;;;10.73;7.23;;;2.10;99.90;;;;;;10360084;28;20218;-68
2023/01/26 13:30:21;;;;;;;13.53;7.90;;;2.20;99.90;;;;;;10350686;28;20240;-68
2023/01/26 13:35:24;;;;;;;18.13;8.10;;;2.10;99.90;;;;;;10351379;28;20645;-68
2023/01/26 13:40:30;;;;;;;11.20;7.77;;;2.10;99.90;;;;;;10356227;28;20237;-67
2023/01/26 13:45:49;;;;;;;10.27;7.77;;;2.10;99.90;;;;;;10349585;28;20857;-67
2023/01/26 13:50:50;;;;;;;10.83;7.53;;;2.00;99.90;;;;;;10353546;28;20225;-68
2023/01/26 13:55:57;;;;;;;12.33;7.47;;;1.90;99.90;;;;;;10354367;28;20228;-68
2023/01/26 14:01:00;;;;;;;18.40;8.20;;;1.90;99.90;;;;;;10356453;28;20296;-71
2023/01/26 14:06:27;;;;;;;12.03;7.90;;;1.80;99.90;;;;;;10351662;28;20218;-68
2023/01/26 14:11:29;;;;;;;10.80;7.30;;;1.80;99.90;;;;;;10349505;28;20222;-68
2023/01/26 14:16:32;;;;;;;10.10;7.47;;;1.80;99.90;;;;;;10354400;28;20676;-68
2023/01/26 14:21:48;;;;;;;10.83;7.33;;;1.70;99.90;;;;;;10344620;28;20657;-68
2023/01/26 14:26:49;;;;;;;13.83;7.67;;;1.60;99.90;;;;;;10357308;28;20244;-68
2023/01/26 14:31:52;;;;;;;13.77;8.40;;;1.60;99.90;;;;;;10352054;28;20221;-68
2023/01/26 14:37:16;;;;;;;12.23;7.80;;;1.70;99.90;;;;;;10353738;28;20230;-68
2023/01/26 14:42:19;;;;;;;13.53;9.37;;;1.60;99.90;;;;;;10348245;28;20238;-67
2023/01/26 14:47:25;;;;;;;15.13;9.07;;;1.60;99.90;;;;;;10359289;28;20225;-67
2023/01/26 14:52:37;;;;;;;12.33;8.00;;;1.60;99.90;;;;;;10347019;28;20213;-68
2023/01/26 14:57:38;;;;;;;12.73;8.67;;;1.60;99.90;;;;;;10341726;28;20726;-69
2023/01/26 15:02:43;;;;;;;13.47;8.77;;;1.60;99.90;;;;;;10348855;28;20299;-68
2023/01/26 15:07:45;;;;;;;12.00;8.23;;;1.60;99.90;;;;;;10345176;28;20376;-68
2023/01/26 15:12:54;;;;;;;15.20;9.03;;;1.60;99.90;;;;;;10355050;28;20597;-68
2023/01/26 15:18:20;;;;;;;13.97;8.50;;;1.70;99.90;;;;;;10335079;28;20757;-68
2023/01/26 15:23:26;;;;;;;14.17;8.53;;;1.70;99.90;;;;;;10346821;28;20241;-68
2023/01/26 15:28:27;;;;;;;13.73;9.27;;;1.70;99.90;;;;;;10352659;28;20368;-69
2023/01/26 15:33:51;;;;;;;13.33;9.33;;;1.60;99.90;;;;;;10345841;28;20360;-68
2023/01/26 15:39:13;;;;;;;12.93;9.03;;;1.70;99.90;;;;;;10341712;28;20299;-68
2023/01/26 15:44:20;;;;;;;13.60;9.60;;;1.70;99.90;;;;;;10342879;28;20731;-68
2023/01/26 15:49:22;;;;;;;17.40;9.80;;;1.80;99.90;;;;;;10345510;28;20248;-69
2023/01/26 15:54:22;;;;;;;13.97;9.97;;;1.80;99.90;;;;;;10351419;28;20227;-69
2023/01/26 15:59:23;;;;;;;19.27;10.97;;;1.80;99.90;;;;;;10344608;28;20232;-68
2023/01/26 16:04:24;;;;;;;15.90;10.07;;;1.80;99.90;;;;;;10352162;28;20278;-68
2023/01/26 16:09:24;;;;;;;14.67;9.40;;;1.70;99.90;;;;;;10350653;28;20222;-68
2023/01/26 16:14:25;;;;;;;17.87;10.80;;;1.60;99.90;;;;;;10352092;28;20212;-68
2023/01/26 16:19:25;;;;;;;23.30;12.00;;;1.60;99.90;;;;;;10351892;28;20213;-68
2023/01/26 16:24:26;;;;;;;15.83;9.70;;;1.60;99.90;;;;;;10344028;28;20221;-68
2023/01/26 16:29:30;;;;;;;15.77;9.60;;;1.60;99.90;;;;;;10351686;28;20278;-68
2023/01/26 16:34:30;;;;;;;19.87;11.33;;;1.70;99.90;;;;;;10347829;28;20590;-68
2023/01/26 16:39:31;;;;;;;18.00;10.53;;;1.70;99.90;;;;;;10353043;28;20219;-68
2023/01/26 16:44:32;;;;;;;17.07;10.07;;;1.80;99.90;;;;;;10348463;28;20319;-68
2023/01/26 16:49:33;;;;;;;16.83;10.30;;;1.70;99.90;;;;;;10345999;28;20229;-68
2023/01/26 16:54:33;;;;;;;17.73;9.93;;;1.70;99.90;;;;;;10348130;28;20214;-69
2023/01/26 16:59:34;;;;;;;15.43;9.63;;;1.80;99.90;;;;;;10346242;28;20219;-66
2023/01/26 17:04:34;;;;;;;14.37;9.40;;;1.80;99.90;;;;;;10351779;28;20217;-68
2023/01/26 17:09:35;;;;;;;18.10;10.73;;;1.70;99.90;;;;;;10351981;28;20217;-69
2023/01/26 17:14:36;;;;;;;15.40;9.20;;;1.70;99.90;;;;;;10355435;28;20210;-67
2023/01/26 17:19:36;;;;;;;15.27;9.33;;;1.70;99.90;;;;;;10347548;28;20218;-68
2023/01/26 17:24:37;;;;;;;20.93;10.80;;;1.70;99.90;;;;;;10345846;28;20810;-68
2023/01/26 17:29:40;;;;;;;18.13;10.03;;;1.70;99.90;;;;;;10346764;28;20225;-68
2023/01/26 17:34:41;;;;;;;18.37;11.47;;;1.60;99.90;;;;;;10347126;28;20217;-68
2023/01/26 17:39:42;;;;;;;18.67;11.27;;;1.60;99.90;;;;;;10348883;28;20638;-69
2023/01/26 17:44:43;;;;;;;19.07;11.37;;;1.60;99.90;;;;;;10345923;28;20229;-69
2023/01/26 17:49:43;;;;;;;18.50;11.00;;;1.60;99.90;;;;;;10350514;28;20240;-67
2023/01/26 17:54:47;;;;;;;21.70;11.43;;;1.60;99.90;;;;;;10355579;28;20745;-67
2023/01/26 17:59:48;;;;;;;20.23;11.13;;;1.50;99.90;;;;;;10352663;28;20237;-67
2023/01/26 18:04:48;;;;;;;18.87;12.03;;;1.60;99.90;;;;;;10353823;28;20224;-67
2023/01/26 18:09:49;;;;;;;19.30;11.87;;;1.60;99.90;;;;;;10359281;28;20217;-69
2023/01/26 18:14:50;;;;;;;19.50;12.17;;;1.60;99.90;;;;;;10354066;28;20768;-69
2023/01/26 18:19:50;;;;;;;21.07;12.47;;;1.60;99.90;;;;;;10359198;28;20214;-69
2023/01/26 18:24:51;;;;;;;20.60;12.07;;;1.60;99.90;;;;;;10353818;28;20232;-68
2023/01/26 18:29:52;;;;;;;17.70;11.27;;;1.70;99.90;;;;;;10342012;28;20314;-68
2023/01/26 18:34:53;;;;;;;20.33;12.20;;;1.70;99.90;;;;;;10354108;28;20265;-69
2023/01/26 18:39:53;;;;;;;24.53;12.83;;;1.70;99.90;;;;;;10350524;28;20310;-68
2023/01/26 18:44:59;;;;;;;18.80;11.87;;;1.80;99.90;;;;;;10361526;28;20237;-68
2023/01/26 18:50:00;;;;;;;22.07;12.47;;;1.70;99.90;;;;;;10356178;28;20226;-69
2023/01/26 18:55:00;;;;;;;23.47;13.43;;;1.70;99.90;;;;;;10339227;28;20425;-68
2023/01/26 19:00:03;;;;;;;22.57;13.47;;;1.60;99.90;;;;;;10356496;28;20343;-69
2023/01/26 19:05:08;;;;;;;25.00;13.77;;;1.60;99.90;;;;;;10364554;28;20274;-68
2023/01/26 19:10:09;;;;;;;23.57;12.83;;;1.60;99.90;;;;;;10346635;28;20229;-69
2023/01/26 19:15:09;;;;;;;24.57;13.43;;;1.60;99.90;;;;;;10354480;28;20199;-67
2023/01/26 19:20:11;;;;;;;24.30;14.17;;;1.60;99.90;;;;;;10355106;28;20190;-68
2023/01/26 19:25:12;;;;;;;22.80;13.13;;;1.60;99.90;;;;;;10355104;28;20192;-68
2023/01/26 19:30:13;;;;;;;22.87;13.20;;;1.50;99.90;;;;;;10346659;28;20204;-67
2023/01/26 19:35:13;;;;;;;25.77;14.27;;;1.50;99.90;;;;;;10343004;28;20193;-68
2023/01/26 19:40:14;;;;;;;24.67;14.63;;;1.50;99.90;;;;;;10352896;28;20204;-68
2023/01/26 19:45:15;;;;;;;25.43;14.90;;;1.50;99.90;;;;;;10346299;28;20637;-67
2023/01/26 19:50:16;;;;;;;25.87;15.07;;;1.40;99.90;;;;;;10352725;28;20621;-68
2023/01/26 19:55:16;;;;;;;25.57;15.73;;;1.50;99.90;;;;;;10345665;28;20548;-68
2023/01/26 20:00:17;;;;;;;25.93;15.73;;;1.50;99.90;;;;;;10353273;28;20178;-68
2023/01/26 20:05:18;;;;;;;27.87;15.90;;;1.60;99.90;;;;;;10353096;28;20216;-68
2023/01/26 20:10:18;;;;;;;29.40;16.83;;;1.60;99.90;;;;;;10345250;28;20241;-69
2023/01/26 20:15:25;;;;;;;28.67;16.67;;;1.50;99.90;;;;;;10359481;28;20667;-69
2023/01/26 20:20:26;;;;;;;28.80;16.73;;;1.60;99.90;;;;;;10346614;28;20224;-69
2023/01/26 20:25:27;;;;;;;27.17;15.17;;;1.50;99.90;;;;;;10350996;28;20213;-68
2023/01/26 20:30:30;;;;;;;27.73;16.03;;;1.50;99.90;;;;;;10345796;28;20229;-68
2023/01/26 20:35:31;;;;;;;25.10;14.77;;;1.50;99.90;;;;;;10349949;28;20217;-68
2023/01/26 20:40:37;;;;;;;24.93;14.40;;;1.50;99.90;;;;;;10346322;28;20217;-68
2023/01/26 20:45:41;;;;;;;26.70;15.00;;;1.50;99.90;;;;;;10349102;28;20242;-68
2023/01/26 20:50:42;;;;;;;27.40;14.73;;;1.50;99.90;;;;;;10354989;28;20268;-68
2023/01/26 20:55:43;;;;;;;23.30;14.43;;;1.50;99.90;;;;;;10349242;28;20615;-68
2023/01/26 21:00:43;;;;;;;24.33;13.80;;;1.50;99.90;;;;;;10347185;28;20284;-68
2023/01/26 21:05:44;;;;;;;23.80;13.43;;;1.50;99.90;;;;;;10351197;28;20221;-68
2023/01/26 21:10:45;;;;;;;20.07;11.90;;;1.50;99.90;;;;;;10350371;28;20266;-67
2023/01/26 21:15:47;;;;;;;23.60;14.07;;;1.50;99.90;;;;;;10333457;28;20243;-68
2023/01/26 21:20:55;;;;;;;27.40;15.90;;;1.60;99.90;;;;;;10346561;28;20225;-67
2023/01/26 21:26:03;;;;;;;22.20;14.50;;;1.60;99.90;;;;;;10331379;28;20232;-68
2023/01/26 21:31:13;;;;;;;28.50;17.03;;;1.50;99.90;;;;;;10352328;28;20234;-68
2023/01/26 21:36:16;;;;;;;27.00;17.10;;;1.50;99.90;;;;;;10355661;28;20896;-67
2023/01/26 21:46:39;;;;;;;25.97;16.30;;;1.50;99.90;;;;;;10355637;28;20218;-67
2023/01/26 21:57:01;;;;;;;28.27;17.03;;;1.50;99.90;;;;;;10352484;28;20230;-68
2023/01/26 22:02:01;;;;;;;27.13;15.03;;;1.50;99.90;;;;;;10356359;28;20225;-68
2023/01/26 22:07:02;;;;;;;30.10;15.90;;;1.50;99.90;;;;;;10358305;28;20677;-68
2023/01/26 22:12:03;;;;;;;24.87;14.70;;;1.50;99.90;;;;;;10351371;28;20692;-68
2023/01/26 22:17:03;;;;;;;24.80;14.27;;;1.50;99.90;;;;;;10357721;28;20232;-68
2023/01/26 22:22:04;;;;;;;24.13;15.03;;;1.50;99.90;;;;;;10356020;28;20664;-69
2023/01/26 22:27:07;;;;;;;23.73;14.13;;;1.50;99.90;;;;;;10350520;28;20222;-67
2023/01/26 22:32:07;;;;;;;23.87;14.10;;;1.50;99.90;;;;;;10348711;28;20240;-67
2023/01/26 22:37:08;;;;;;;25.77;14.63;;;1.50;99.90;;;;;;10349437;28;20683;-67
2023/01/26 22:42:08;;;;;;;25.50;14.57;;;1.50;99.90;;;;;;10355487;28;20252;-67
2023/01/26 22:47:09;;;;;;;23.80;14.27;;;1.50;99.90;;;;;;10362668;28;20225;-66
2023/01/26 22:52:12;;;;;;;26.93;15.60;;;1.50;99.90;;;;;;10351360;28;20301;-67
2023/01/26 22:57:13;;;;;;;28.20;15.33;;;1.60;99.90;;;;;;10361651;28;20353;-67
2023/01/26 23:02:13;;;;;;;25.63;15.07;;;1.50;99.90;;;;;;10355637;28;20661;-67
2023/01/26 23:07:14;;;;;;;28.40;16.53;;;1.50;99.90;;;;;;10354503;28;20749;-68
2023/01/26 23:12:14;;;;;;;28.03;15.93;;;1.50;99.90;;;;;;10354899;28;20351;-68
2023/01/26 23:17:15;;;;;;;28.77;15.13;;;1.40;99.90;;;;;;10347433;28;20260;-67
2023/01/26 23:22:16;;;;;;;27.77;15.67;;;1.40;99.90;;;;;;10355031;28;20632;-68
2023/01/26 23:27:16;;;;;;;26.70;15.67;;;1.40;99.90;;;;;;10347248;28;20259;-68
2023/01/26 23:32:17;;;;;;;26.50;15.43;;;1.40;99.90;;;;;;10354227;28;20300;-67
2023/01/26 23:37:17;;;;;;;26.50;14.93;;;1.40;99.90;;;;;;10351362;28;20308;-68
2023/01/26 23:42:21;;;;;;;24.57;14.83;;;1.50;99.90;;;;;;10336650;28;20282;-68
2023/01/26 23:47:21;;;;;;;22.63;13.97;;;1.60;99.90;;;;;;10352643;28;20229;-68
2023/01/26 23:52:22;;;;;;;23.67;14.17;;;1.50;99.90;;;;;;10345874;28;20229;-68
2023/01/26 23:57:22;;;;;;;24.77;15.17;;;1.40;99.90;;;;;;10352387;28;20221;-68
